Time;durP1;ratioP1;P1;durP2;ratioP2;P2;SDS_P1;SDS_P2;PMS_P1;PMS_P2;Temp;Humidity;BMP_temperature;BMP_pressure;BME280_temperature;BME280_humidity;BME280_pressure;Samples;Min_cycle;Max_cycle;Signal;HPM_P1;HPM_P2
2022/09/24 00:00:53;;;;;;;;;;;22.60;44.60;21.40;100912.00;;;;5101367;28;19916;-70
2022/09/24 00:03:39;;;;;;;;;;;22.60;44.60;21.40;100908.00;;;;5103939;28;20281;-70
2022/09/24 00:06:26;;;;;;;;;;;22.60;44.60;21.40;100907.00;;;;5095396;27;20273;-70
2022/09/24 00:09:18;;;;;;;;;;;22.60;44.60;21.40;100909.00;;;;5080835;28;19916;-70
2022/09/24 00:12:04;;;;;;;;;;;22.60;44.60;21.40;100903.00;;;;5102055;28;20585;-70
2022/09/24 00:14:50;;;;;;;;;;;22.60;44.60;21.40;100902.00;;;;5102523;28;20376;-70
2022/09/24 00:17:36;;;;;;;;;;;22.60;44.60;21.40;100897.00;;;;5099964;28;19957;-70
2022/09/24 00:20:22;;;;;;;;;;;22.60;44.60;21.40;100894.00;;;;5098051;28;19921;-70
2022/09/24 00:23:08;;;;;;;;;;;22.60;44.60;21.40;100906.00;;;;5094258;28;19915;-70
2022/09/24 00:28:58;;;;;;;;;;;22.60;44.70;21.40;100901.00;;;;5096013;28;19916;-70
2022/09/24 00:31:45;;;;;;;;;;;22.60;44.60;21.40;100913.00;;;;5100362;28;19923;-70
2022/09/24 00:34:31;;;;;;;;;;;22.60;44.70;21.40;100902.00;;;;5098050;28;20502;-70
2022/09/24 00:37:18;;;;;;;;;;;22.60;45.40;21.40;100895.00;;;;5095815;28;19920;-70
2022/09/24 00:40:04;;;;;;;;;;;22.60;44.70;21.40;100900.00;;;;5096464;28;20434;-70
2022/09/24 00:42:50;;;;;;;;;;;22.60;44.70;21.40;100907.00;;;;5097426;28;19999;-70
2022/09/24 00:45:36;;;;;;;;;;;22.60;44.70;21.40;100899.00;;;;5095573;28;19927;-70
2022/09/24 00:48:22;;;;;;;;;;;22.60;44.80;21.40;100907.00;;;;5096245;28;19913;-70
2022/09/24 00:51:09;;;;;;;;;;;22.60;44.70;21.40;100908.00;;;;5099758;28;20484;-70
2022/09/24 00:54:02;;;;;;;;;;;22.70;44.80;21.40;100907.00;;;;5092906;28;19912;-70
2022/09/24 00:56:49;;;;;;;;;;;22.60;44.80;21.40;100901.00;;;;5086175;27;19921;-70
2022/09/24 00:59:35;;;;;;;;;;;22.60;44.80;21.40;100901.00;;;;5084832;28;19915;-70
2022/09/24 01:02:20;;;;;;;;;;;22.60;44.80;21.40;100907.00;;;;5093048;28;19918;-70
2022/09/24 01:05:09;;;;;;;;;;;22.60;44.80;21.40;100896.00;;;;5091751;28;19916;-70
2022/09/24 01:07:55;;;;;;;;;;;22.60;44.80;21.40;100898.00;;;;5102510;28;20243;-70
2022/09/24 01:11:10;;;;;;;;;;;22.60;44.80;21.40;100896.00;;;;5096191;28;19926;-70
2022/09/24 01:14:10;;;;;;;;;;;22.60;44.90;21.40;100890.00;;;;5078420;28;20019;-70
2022/09/24 01:17:23;;;;;;;;;;;22.60;44.80;21.40;100904.00;;;;5100773;28;19915;-70
2022/09/24 01:20:34;;;;;;;;;;;22.60;44.90;21.40;100903.00;;;;5093666;28;19920;-70
2022/09/24 01:23:43;;;;;;;;;;;22.60;44.80;21.40;100892.00;;;;5094503;28;20124;-70
2022/09/24 01:26:38;;;;;;;;;;;22.60;44.90;21.40;100897.00;;;;5087545;28;20285;-70
2022/09/24 01:29:45;;;;;;;;;;;22.60;44.90;21.40;100894.00;;;;5078227;28;19955;-70
2022/09/24 01:32:51;;;;;;;;;;;22.60;44.90;21.40;100889.00;;;;5104447;28;20397;-70
2022/09/24 01:35:42;;;;;;;;;;;22.60;44.90;21.40;100881.00;;;;5098279;28;20385;-70
2022/09/24 01:38:29;;;;;;;;;;;22.60;45.00;21.40;100885.00;;;;5070197;28;20249;-70
2022/09/24 01:41:15;;;;;;;;;;;22.60;44.90;21.40;100882.00;;;;5088659;28;19962;-70
2022/09/24 01:44:03;;;;;;;;;;;22.60;44.90;21.40;100877.00;;;;5099806;28;19962;-70
2022/09/24 01:46:49;;;;;;;;;;;22.60;44.90;21.40;100881.00;;;;5076376;28;20121;-70
2022/09/24 01:49:35;;;;;;;;;;;22.60;45.00;21.40;100889.00;;;;5112182;27;19916;-70
2022/09/24 01:52:25;;;;;;;;;;;22.60;44.90;21.40;100882.00;;;;5099119;27;19919;-70
2022/09/24 01:55:13;;;;;;;;;;;22.60;44.90;21.40;100879.00;;;;5085892;28;19915;-70
2022/09/24 01:58:15;;;;;;;;;;;22.60;45.00;21.40;100869.00;;;;5100217;28;19918;-70
2022/09/24 02:01:09;;;;;;;;;;;22.60;45.00;21.40;100862.00;;;;5100492;27;19912;-70
2022/09/24 02:03:56;;;;;;;;;;;22.60;45.00;21.40;100855.00;;;;5085210;27;19911;-70
2022/09/24 02:06:46;;;;;;;;;;;22.60;45.00;21.40;100851.00;;;;5091875;27;20413;-70
2022/09/24 02:09:37;;;;;;;;;;;22.60;45.00;21.40;100852.00;;;;5073790;28;20597;-70
2022/09/24 02:12:30;;;;;;;;;;;22.60;45.00;21.40;100850.00;;;;5089269;27;20426;-70
2022/09/24 02:15:33;;;;;;;;;;;22.60;45.00;21.40;100837.00;;;;5096738;27;19916;-70
2022/09/24 02:18:20;;;;;;;;;;;22.60;45.00;21.40;100844.00;;;;5102043;27;19919;-70
2022/09/24 02:21:09;;;;;;;;;;;22.60;45.00;21.40;100839.00;;;;5082005;27;20376;-70
2022/09/24 02:23:59;;;;;;;;;;;22.60;45.00;21.40;100847.00;;;;5074213;28;19916;-70
2022/09/24 02:26:46;;;;;;;;;;;22.60;45.00;21.40;100839.00;;;;5080643;28;19916;-70
2022/09/24 02:29:32;;;;;;;;;;;22.60;45.00;21.40;100844.00;;;;5096836;28;19977;-70
2022/09/24 02:32:18;;;;;;;;;;;22.60;45.00;21.40;100836.00;;;;5098046;28;19920;-70
2022/09/24 02:35:05;;;;;;;;;;;22.60;45.00;21.40;100839.00;;;;5108986;27;19915;-70
2022/09/24 02:37:51;;;;;;;;;;;22.60;45.00;21.40;100831.00;;;;5085994;28;19912;-70
2022/09/24 02:40:37;;;;;;;;;;;22.60;45.00;21.40;100837.00;;;;5093977;28;19919;-70
2022/09/24 02:43:24;;;;;;;;;;;22.60;45.00;21.40;100836.00;;;;5096056;28;19970;-70
2022/09/24 02:46:11;;;;;;;;;;;22.60;45.10;21.40;100833.00;;;;5102158;28;19958;-70
2022/09/24 02:48:57;;;;;;;;;;;22.60;45.00;21.40;100829.00;;;;5095789;28;19998;-70
2022/09/24 02:51:43;;;;;;;;;;;22.60;45.00;21.40;100830.00;;;;5097723;28;19915;-70
2022/09/24 02:54:30;;;;;;;;;;;22.60;45.10;21.40;100830.00;;;;5103426;28;20349;-70
2022/09/24 02:57:17;;;;;;;;;;;22.60;45.10;21.40;100828.00;;;;5077188;28;19919;-70
2022/09/24 03:00:04;;;;;;;;;;;22.60;45.10;21.40;100821.00;;;;5083835;28;19923;-70
2022/09/24 03:02:50;;;;;;;;;;;22.60;45.10;21.40;100822.00;;;;5099601;28;20002;-70
2022/09/24 03:05:36;;;;;;;;;;;22.60;45.10;21.40;100824.00;;;;5096856;28;19931;-70
2022/09/24 03:08:26;;;;;;;;;;;22.60;45.10;21.40;100821.00;;;;5099023;28;19923;-70
2022/09/24 03:11:11;;;;;;;;;;;22.60;45.10;21.40;100824.00;;;;5081507;28;19916;-70
2022/09/24 03:13:58;;;;;;;;;;;22.60;45.10;21.40;100825.00;;;;5095111;28;19918;-70
2022/09/24 03:16:44;;;;;;;;;;;22.60;45.10;21.40;100824.00;;;;5092861;28;19935;-70
2022/09/24 03:19:30;;;;;;;;;;;22.60;45.20;21.40;100824.00;;;;5094217;28;20357;-70
2022/09/24 03:22:16;;;;;;;;;;;22.60;45.10;21.40;100823.00;;;;5093956;28;19919;-70
2022/09/24 03:25:02;;;;;;;;;;;22.60;45.20;21.40;100818.00;;;;5086245;28;19956;-70
2022/09/24 03:27:48;;;;;;;;;;;22.60;45.20;21.40;100819.00;;;;5098536;28;19973;-70
2022/09/24 03:33:42;;;;;;;;;;;22.70;45.20;21.40;100814.00;;;;5100599;28;20269;-70
2022/09/24 03:36:28;;;;;;;;;;;22.70;46.00;21.40;100811.00;;;;5097781;28;19911;-70
2022/09/24 03:39:14;;;;;;;;;;;22.60;45.20;21.40;100811.00;;;;5099486;28;20327;-70
2022/09/24 03:42:01;;;;;;;;;;;22.60;45.90;21.40;100801.00;;;;5102654;28;19915;-70
2022/09/24 03:44:46;;;;;;;;;;;22.60;45.20;21.40;100798.00;;;;5096063;28;19926;-70
2022/09/24 03:47:32;;;;;;;;;;;22.60;45.30;21.40;100796.00;;;;5096565;28;20308;-70
2022/09/24 03:50:18;;;;;;;;;;;22.60;45.60;21.40;100797.00;;;;5085642;28;19920;-71
2022/09/24 03:53:04;;;;;;;;;;;22.60;45.30;21.40;100792.00;;;;5098252;28;20872;-70
2022/09/24 03:55:54;;;;;;;;;;;22.50;45.20;21.40;100790.00;;;;5095994;28;19942;-70
2022/09/24 03:58:41;;;;;;;;;;;22.60;45.30;21.40;100784.00;;;;5082668;28;19912;-70
2022/09/24 04:01:29;;;;;;;;;;;22.60;45.20;21.40;100788.00;;;;5115823;27;19916;-70
2022/09/24 04:04:15;;;;;;;;;;;22.60;45.30;21.40;100781.00;;;;5096704;28;19918;-70
2022/09/24 04:07:02;;;;;;;;;;;22.60;45.20;21.40;100784.00;;;;5096296;28;20291;-70
2022/09/24 04:09:48;;;;;;;;;;;22.60;45.30;21.40;100779.00;;;;5102097;28;19912;-69
2022/09/24 04:12:34;;;;;;;;;;;22.60;45.20;21.40;100789.00;;;;5096296;28;19940;-70
2022/09/24 04:15:20;;;;;;;;;;;22.60;45.30;21.40;100787.00;;;;5097797;28;19916;-70
2022/09/24 04:18:06;;;;;;;;;;;22.60;45.30;21.40;100787.00;;;;5101529;27;20044;-70
2022/09/24 04:20:57;;;;;;;;;;;22.60;45.30;21.40;100787.00;;;;5097999;27;19911;-70
2022/09/24 04:23:43;;;;;;;;;;;22.60;45.30;21.40;100778.00;;;;5100391;27;19919;-70
2022/09/24 04:26:29;;;;;;;;;;;22.60;45.30;21.40;100781.00;;;;5094349;28;20288;-70
2022/09/24 04:29:15;;;;;;;;;;;22.60;45.30;21.40;100777.00;;;;5098573;27;20392;-70
2022/09/24 04:32:02;;;;;;;;;;;22.60;45.30;21.40;100775.00;;;;5095517;28;19927;-70
2022/09/24 04:34:48;;;;;;;;;;;22.60;45.30;21.40;100777.00;;;;5102762;28;19999;-70
2022/09/24 04:37:35;;;;;;;;;;;22.60;45.40;21.40;100781.00;;;;5100018;28;19911;-70
2022/09/24 04:40:21;;;;;;;;;;;22.80;45.50;21.40;100782.00;;;;5097383;28;20383;-70
2022/09/24 04:43:07;;;;;;;;;;;22.60;45.40;21.40;100781.00;;;;5097207;28;19916;-70
2022/09/24 04:45:55;;;;;;;;;;;22.60;45.40;21.40;100787.00;;;;5099945;27;20403;-70
2022/09/24 04:48:42;;;;;;;;;;;22.60;45.40;21.40;100781.00;;;;5104847;27;19993;-70
2022/09/24 04:51:28;;;;;;;;;;;22.60;45.40;21.40;100778.00;;;;5098110;27;20372;-70
2022/09/24 04:54:14;;;;;;;;;;;22.60;45.40;21.40;100782.00;;;;5100940;27;19915;-70
2022/09/24 04:57:00;;;;;;;;;;;22.60;45.40;21.40;100781.00;;;;5099458;27;19923;-70
2022/09/24 04:59:46;;;;;;;;;;;22.70;45.50;21.40;100779.00;;;;5102141;27;19916;-70
2022/09/24 05:02:32;;;;;;;;;;;22.70;45.50;21.40;100775.00;;;;5101381;27;20011;-70
2022/09/24 05:05:18;;;;;;;;;;;22.60;45.40;21.40;100775.00;;;;5102815;27;19973;-70
2022/09/24 05:08:04;;;;;;;;;;;22.60;45.40;21.40;100781.00;;;;5097756;27;19915;-70
2022/09/24 05:10:53;;;;;;;;;;;22.60;45.40;21.40;100788.00;;;;5096845;27;20224;-70
2022/09/24 05:13:38;;;;;;;;;;;22.60;45.40;21.40;100780.00;;;;5095633;28;20408;-70
2022/09/24 05:16:25;;;;;;;;;;;22.60;45.50;21.40;100782.00;;;;5101528;27;19940;-70
2022/09/24 05:19:10;;;;;;;;;;;22.60;45.50;21.40;100782.00;;;;5094190;28;19918;-70
2022/09/24 05:21:57;;;;;;;;;;;22.60;45.50;21.40;100784.00;;;;5090873;27;20259;-70
2022/09/24 05:24:43;;;;;;;;;;;22.40;46.10;21.40;100784.00;;;;5096993;27;19912;-70
2022/09/24 05:27:29;;;;;;;;;;;22.60;45.50;21.40;100788.00;;;;5099949;27;19956;-70
2022/09/24 05:30:15;;;;;;;;;;;22.60;45.50;21.40;100792.00;;;;5099534;27;19923;-70
2022/09/24 05:33:01;;;;;;;;;;;22.60;45.50;21.40;100792.00;;;;5100162;27;19912;-71
2022/09/24 05:35:52;;;;;;;;;;;22.60;45.50;21.40;100797.00;;;;5095971;27;19915;-73
2022/09/24 05:38:38;;;;;;;;;;;22.60;45.50;21.40;100787.00;;;;5088001;28;19943;-72
2022/09/24 05:41:24;;;;;;;;;;;22.70;45.60;21.40;100790.00;;;;5096685;28;20273;-72
2022/09/24 05:44:10;;;;;;;;;;;22.60;45.50;21.30;100795.00;;;;5084263;28;19919;-73
2022/09/24 05:46:56;;;;;;;;;;;22.60;45.60;21.40;100797.00;;;;5099157;28;20293;-73
2022/09/24 05:49:42;;;;;;;;;;;22.60;45.60;21.40;100798.00;;;;5081338;28;20344;-72
2022/09/24 05:52:28;;;;;;;;;;;22.60;45.60;21.40;100799.00;;;;5087653;28;20440;-73
2022/09/24 05:55:14;;;;;;;;;;;22.60;45.60;21.40;100799.00;;;;5102843;28;19916;-73
2022/09/24 05:58:02;;;;;;;;;;;22.60;45.60;21.40;100792.00;;;;5098961;28;20408;-73
2022/09/24 06:00:48;;;;;;;;;;;22.60;45.70;21.40;100797.00;;;;5097435;28;20356;-71
2022/09/24 06:03:34;;;;;;;;;;;22.60;45.70;21.40;100800.00;;;;5093311;28;19916;-71
2022/09/24 06:06:20;;;;;;;;;;;22.60;45.70;21.40;100798.00;;;;5098183;27;20181;-71
2022/09/24 06:09:08;;;;;;;;;;;22.60;45.70;21.40;100804.00;;;;5094721;27;19924;-71
2022/09/24 06:11:55;;;;;;;;;;;22.60;45.70;21.30;100797.00;;;;5098637;27;19989;-71
2022/09/24 06:14:41;;;;;;;;;;;22.60;45.80;21.40;100796.00;;;;5094361;27;19915;-70
2022/09/24 06:17:27;;;;;;;;;;;22.60;45.70;21.40;100793.00;;;;5085691;28;19916;-69
2022/09/24 06:20:14;;;;;;;;;;;22.60;45.70;21.40;100799.00;;;;5088813;28;20078;-69
2022/09/24 06:23:01;;;;;;;;;;;22.60;45.80;21.40;100800.00;;;;5089590;27;19920;-70
2022/09/24 06:25:49;;;;;;;;;;;22.60;45.80;21.40;100799.00;;;;5089351;28;20429;-70
2022/09/24 06:28:36;;;;;;;;;;;22.60;45.80;21.40;100799.00;;;;5088623;28;20427;-69
2022/09/24 06:31:22;;;;;;;;;;;22.60;45.80;21.40;100809.00;;;;5115440;27;20365;-69
2022/09/24 06:34:08;;;;;;;;;;;22.60;45.80;21.40;100812.00;;;;5096183;27;20353;-70
2022/09/24 06:36:54;;;;;;;;;;;22.60;45.80;21.40;100808.00;;;;5102386;27;19934;-70
2022/09/24 06:39:40;;;;;;;;;;;22.60;45.80;21.40;100809.00;;;;5102065;27;19912;-70
2022/09/24 06:42:26;;;;;;;;;;;22.60;45.80;21.40;100807.00;;;;5101516;27;19920;-70
2022/09/24 06:45:12;;;;;;;;;;;22.60;45.80;21.40;100805.00;;;;5102775;27;20288;-70
2022/09/24 06:47:59;;;;;;;;;;;22.60;45.90;21.40;100817.00;;;;5094768;27;19927;-70
2022/09/24 06:50:46;;;;;;;;;;;22.60;45.90;21.40;100810.00;;;;5087246;27;19919;-70
2022/09/24 06:53:32;;;;;;;;;;;22.60;45.90;21.40;100815.00;;;;5089708;28;19915;-70
2022/09/24 06:56:18;;;;;;;;;;;22.60;45.90;21.40;100815.00;;;;5080323;28;20421;-70
2022/09/24 06:59:05;;;;;;;;;;;22.60;45.90;21.40;100817.00;;;;5102907;27;20497;-70
2022/09/24 07:01:51;;;;;;;;;;;22.60;45.90;21.30;100824.00;;;;5091299;28;20276;-69
2022/09/24 07:04:37;;;;;;;;;;;22.60;45.80;21.30;100823.00;;;;5093872;28;19912;-70
2022/09/24 07:07:28;;;;;;;;;;;22.60;45.90;21.30;100821.00;;;;5092676;28;20581;-70
2022/09/24 07:10:16;;;;;;;;;;;22.60;45.90;21.30;100820.00;;;;5100117;28;20344;-69
2022/09/24 07:13:02;;;;;;;;;;;22.60;46.00;21.30;100816.00;;;;5086957;28;20440;-69
2022/09/24 07:15:49;;;;;;;;;;;22.60;46.00;21.30;100821.00;;;;5100179;28;19922;-70
2022/09/24 07:18:36;;;;;;;;;;;22.60;46.10;21.30;100820.00;;;;5101206;27;19918;-70
2022/09/24 07:21:22;;;;;;;;;;;22.50;46.10;21.30;100828.00;;;;5099245;28;19919;-70
2022/09/24 07:24:08;;;;;;;;;;;22.50;46.10;21.30;100819.00;;;;5093244;28;20062;-69
2022/09/24 07:26:54;;;;;;;;;;;22.50;46.10;21.30;100821.00;;;;5094689;28;19955;-70
2022/09/24 07:29:40;;;;;;;;;;;22.50;46.10;21.30;100823.00;;;;5087918;28;19915;-70
2022/09/24 07:32:26;;;;;;;;;;;22.50;46.10;21.30;100826.00;;;;5098134;28;19974;-70
2022/09/24 07:35:12;;;;;;;;;;;22.50;46.10;21.30;100825.00;;;;5087443;28;20292;-69
2022/09/24 07:37:59;;;;;;;;;;;22.50;46.20;21.30;100824.00;;;;5095003;28;20381;-70
2022/09/24 07:40:45;;;;;;;;;;;22.60;46.20;21.30;100818.00;;;;5096286;28;19916;-70
2022/09/24 07:43:32;;;;;;;;;;;22.60;46.20;21.30;100829.00;;;;5084828;28;19920;-70
2022/09/24 07:46:18;;;;;;;;;;;22.60;46.20;21.30;100830.00;;;;5087872;28;20047;-69
2022/09/24 07:49:05;;;;;;;;;;;22.60;46.20;21.30;100836.00;;;;5096190;28;19959;-69
2022/09/24 07:51:50;;;;;;;;;;;22.60;46.20;21.30;100836.00;;;;5082541;28;20376;-69
2022/09/24 07:54:37;;;;;;;;;;;22.60;46.20;21.30;100843.00;;;;5101591;27;19922;-69
2022/09/24 07:57:25;;;;;;;;;;;22.60;46.20;21.40;100838.00;;;;5084373;28;20443;-70
2022/09/24 08:00:12;;;;;;;;;;;22.60;46.20;21.30;100839.00;;;;5083150;28;20387;-70
2022/09/24 08:02:58;;;;;;;;;;;22.60;46.30;21.40;100844.00;;;;5097867;27;19916;-70
2022/09/24 08:05:44;;;;;;;;;;;22.90;46.40;21.40;100845.00;;;;5101557;27;20392;-70
2022/09/24 08:08:30;;;;;;;;;;;22.50;46.30;21.40;100847.00;;;;5097441;28;19916;-70
2022/09/24 08:11:16;;;;;;;;;;;22.60;46.30;21.40;100851.00;;;;5098476;28;19931;-70
2022/09/24 08:14:02;;;;;;;;;;;22.60;46.30;21.40;100849.00;;;;5097970;28;19915;-70
2022/09/24 08:16:48;;;;;;;;;;;22.60;46.30;21.40;100852.00;;;;5096784;27;19989;-70
2022/09/24 08:19:34;;;;;;;;;;;22.60;46.30;21.40;100851.00;;;;5090571;28;20074;-70
2022/09/24 08:22:20;;;;;;;;;;;22.60;46.30;21.40;100851.00;;;;5096103;27;19923;-70
2022/09/24 08:25:07;;;;;;;;;;;22.60;46.30;21.40;100853.00;;;;5097207;28;19923;-70
2022/09/24 08:27:52;;;;;;;;;;;22.60;46.30;21.40;100860.00;;;;5091176;28;20519;-72
2022/09/24 08:30:39;;;;;;;;;;;22.60;46.30;21.40;100850.00;;;;5099711;27;19973;-71
2022/09/24 08:33:28;;;;;;;;;;;22.60;46.30;21.30;100850.00;;;;5100112;28;19912;-71
2022/09/24 08:36:14;;;;;;;;;;;22.60;46.30;21.30;100854.00;;;;5097797;28;20296;-73
2022/09/24 08:39:00;;;;;;;;;;;22.60;46.30;21.40;100857.00;;;;5101132;28;20353;-71
2022/09/24 08:41:52;;;;;;;;;;;22.60;46.40;21.30;100862.00;;;;5098579;28;19919;-72
2022/09/24 08:47:56;;;;;;;;;;;22.60;46.30;21.30;100859.00;;;;5081731;28;20430;-72
2022/09/24 08:50:50;;;;;;;;;;;22.60;46.40;21.30;100860.00;;;;5097031;27;20010;-72
2022/09/24 08:53:51;;;;;;;;;;;22.60;46.40;21.30;100863.00;;;;5081054;27;19923;-72
2022/09/24 08:56:38;;;;;;;;;;;22.60;46.40;21.30;100864.00;;;;5097363;27;20195;-71
2022/09/24 08:59:31;;;;;;;;;;;22.60;46.40;21.30;100867.00;;;;5094215;28;20344;-71
2022/09/24 09:02:42;;;;;;;;;;;22.60;47.20;21.30;100866.00;;;;5082085;28;19912;-71
2022/09/24 09:05:34;;;;;;;;;;;22.60;46.50;21.30;100861.00;;;;5081121;28;20105;-72
2022/09/24 09:08:34;;;;;;;;;;;22.60;46.50;21.30;100871.00;;;;5099260;27;20614;-71
2022/09/24 09:11:22;;;;;;;;;;;22.60;46.50;21.30;100870.00;;;;5092751;28;19920;-72
2022/09/24 09:14:11;;;;;;;;;;;22.60;46.50;21.30;100862.00;;;;5078010;28;19955;-72
2022/09/24 09:17:35;;;;;;;;;;;22.60;46.50;21.30;100866.00;;;;5091448;27;19996;-71
2022/09/24 09:20:25;;;;;;;;;;;22.60;46.50;21.30;100872.00;;;;5075834;27;20353;-71
2022/09/24 09:23:22;;;;;;;;;;;22.60;46.60;21.30;100871.00;;;;5074082;27;19912;-71
2022/09/24 09:26:08;;;;;;;;;;;22.60;46.60;21.30;100874.00;;;;5072580;28;20262;-71
2022/09/24 09:28:57;;;;;;;;;;;22.60;46.60;21.30;100876.00;;;;5097806;27;19919;-71
2022/09/24 09:32:02;;;;;;;;;;;22.60;46.60;21.30;100874.00;;;;5080617;27;19955;-71
2022/09/24 09:34:57;;;;;;;;;;;22.60;46.60;21.30;100883.00;;;;5098696;27;19912;-73
2022/09/24 09:38:10;;;;;;;;;;;22.60;46.60;21.30;100879.00;;;;5073660;27;20026;-72
2022/09/24 09:41:01;;;;;;;;;;;22.50;46.60;21.30;100875.00;;;;5082040;28;19919;-71
2022/09/24 09:43:47;;;;;;;;;;;22.60;46.60;21.30;100875.00;;;;5091632;28;20010;-71
2022/09/24 09:46:33;;;;;;;;;;;22.60;46.60;21.30;100881.00;;;;5083738;28;19915;-71
2022/09/24 09:49:19;;;;;;;;;;;22.60;46.60;21.30;100882.00;;;;5086785;28;19922;-71
2022/09/24 09:52:15;;;;;;;;;;;22.60;46.70;21.30;100876.00;;;;5068972;28;20460;-71
2022/09/24 09:55:04;;;;;;;;;;;22.60;46.60;21.30;100882.00;;;;5077402;28;19984;-71
2022/09/24 09:57:50;;;;;;;;;;;22.60;46.70;21.30;100878.00;;;;5091643;28;20018;-71
2022/09/24 10:00:36;;;;;;;;;;;22.60;46.70;21.30;100880.00;;;;5084181;27;19974;-71
2022/09/24 10:03:30;;;;;;;;;;;22.60;46.70;21.30;100882.00;;;;5098042;28;20032;-71
2022/09/24 10:06:27;;;;;;;;;;;22.60;46.80;21.30;100892.00;;;;5079654;28;19920;-72
2022/09/24 10:09:20;;;;;;;;;;;22.60;46.70;21.30;100887.00;;;;5080340;28;20010;-72
2022/09/24 10:12:14;;;;;;;;;;;22.50;46.70;21.30;100888.00;;;;5110224;27;20347;-73
2022/09/24 10:15:00;;;;;;;;;;;22.50;46.70;21.30;100891.00;;;;5100677;27;19934;-71
2022/09/24 10:17:49;;;;;;;;;;;22.50;46.70;21.30;100889.00;;;;5094325;27;20346;-72
2022/09/24 10:20:35;;;;;;;;;;;22.50;46.80;21.30;100882.00;;;;5076344;28;20361;-72
2022/09/24 10:23:23;;;;;;;;;;;22.50;46.80;21.30;100883.00;;;;5084860;28;20006;-73
2022/09/24 10:26:09;;;;;;;;;;;22.50;46.70;21.30;100881.00;;;;5084505;28;19923;-73
2022/09/24 10:32:01;;;;;;;;;;;22.50;46.80;21.30;100884.00;;;;5089870;28;19974;-70
2022/09/24 10:35:01;;;;;;;;;;;22.50;46.80;21.30;100872.00;;;;5100177;27;20016;-70
2022/09/24 10:37:57;;;;;;;;;;;22.50;46.80;21.30;100873.00;;;;5112421;27;19965;-70
2022/09/24 10:40:43;;;;;;;;;;;22.50;46.90;21.30;100873.00;;;;5083637;28;20308;-70
2022/09/24 10:43:29;;;;;;;;;;;22.50;46.90;21.30;100867.00;;;;5097834;27;19998;-70
2022/09/24 10:46:57;;;;;;;;;;;22.50;46.80;21.30;100877.00;;;;5111165;27;20355;-70
2022/09/24 10:50:26;;;;;;;;;;;22.50;46.90;21.30;100879.00;;;;5099397;28;19916;-70
2022/09/24 10:53:27;;;;;;;;;;;22.50;46.90;21.30;100879.00;;;;5061799;28;20413;-70
2022/09/24 10:56:24;;;;;;;;;;;22.50;46.90;21.30;100878.00;;;;5062850;28;19919;-70
2022/09/24 10:59:28;;;;;;;;;;;22.50;46.90;21.30;100872.00;;;;5064518;28;20374;-70
2022/09/24 11:02:32;;;;;;;;;;;22.50;46.90;21.30;100869.00;;;;5078615;28;20263;-70
2022/09/24 11:05:21;;;;;;;;;;;22.60;47.00;21.30;100872.00;;;;5080490;28;19912;-70
2022/09/24 11:08:36;;;;;;;;;;;22.60;46.90;21.30;100871.00;;;;5108720;28;19915;-70
2022/09/24 11:11:35;;;;;;;;;;;22.60;46.90;21.30;100871.00;;;;5100351;28;19927;-70
2022/09/24 11:14:40;;;;;;;;;;;22.60;46.90;21.30;100867.00;;;;5077780;28;19991;-71
2022/09/24 11:18:00;;;;;;;;;;;22.60;46.90;21.30;100871.00;;;;5096042;28;20349;-71
2022/09/24 11:21:01;;;;;;;;;;;22.60;46.90;21.30;100870.00;;;;5099861;28;19945;-71
2022/09/24 11:23:53;;;;;;;;;;;22.60;47.60;21.30;100878.00;;;;5096244;28;20013;-71
2022/09/24 11:27:01;;;;;;;;;;;22.60;46.90;21.30;100868.00;;;;5099489;27;20428;-71
2022/09/24 11:29:50;;;;;;;;;;;22.60;46.90;21.30;100877.00;;;;5107104;27;20288;-71
2022/09/24 11:32:40;;;;;;;;;;;22.60;47.00;21.30;100868.00;;;;5104126;27;19924;-71
2022/09/24 11:35:41;;;;;;;;;;;22.60;46.90;21.30;100869.00;;;;5084341;28;19941;-71
2022/09/24 11:38:49;;;;;;;;;;;22.60;46.90;21.30;100866.00;;;;5100575;27;20378;-72
2022/09/24 11:41:58;;;;;;;;;;;22.60;46.90;21.30;100866.00;;;;5105203;27;20017;-74
2022/09/24 11:45:11;;;;;;;;;;;22.60;46.90;21.30;100863.00;;;;5098484;27;19912;-74
2022/09/24 11:48:01;;;;;;;;;;;22.60;46.90;21.30;100867.00;;;;5087502;28;20011;-70
2022/09/24 11:51:06;;;;;;;;;;;22.60;46.90;21.30;100868.00;;;;5102699;28;19916;-70
2022/09/24 11:54:20;;;;;;;;;;;22.60;46.90;21.30;100863.00;;;;5088373;28;20336;-70
2022/09/24 11:57:33;;;;;;;;;;;22.60;46.90;21.30;100870.00;;;;5089522;28;19950;-71
2022/09/24 12:00:20;;;;;;;;;;;22.60;46.90;21.30;100863.00;;;;5096594;27;20003;-70
2022/09/24 12:03:21;;;;;;;;;;;22.60;46.90;21.30;100876.00;;;;5100224;27;19951;-70
2022/09/24 12:06:13;;;;;;;;;;;22.60;46.90;21.30;100874.00;;;;5090073;27;19912;-70
2022/09/24 12:09:16;;;;;;;;;;;22.60;46.90;21.40;100868.00;;;;5076292;28;19919;-70
2022/09/24 12:12:07;;;;;;;;;;;22.60;46.90;21.40;100874.00;;;;5116915;27;19928;-70
2022/09/24 12:15:39;;;;;;;;;;;22.60;46.90;21.40;100870.00;;;;5111459;27;20276;-70
2022/09/24 12:18:31;;;;;;;;;;;22.60;46.90;21.30;100865.00;;;;5071960;27;19922;-70
2022/09/24 12:21:22;;;;;;;;;;;22.60;46.90;21.40;100871.00;;;;5073609;28;20308;-70
2022/09/24 12:24:26;;;;;;;;;;;22.60;46.90;21.40;100873.00;;;;5083843;27;20257;-71
2022/09/24 12:27:13;;;;;;;;;;;22.60;46.90;21.40;100875.00;;;;5080912;28;19920;-72
2022/09/24 12:33:30;;;;;;;;;;;22.60;46.90;21.30;100884.00;;;;5092313;27;20276;-71
2022/09/24 12:36:28;;;;;;;;;;;22.60;47.60;21.30;100875.00;;;;5095286;27;20350;-72
2022/09/24 12:39:13;;;;;;;;;;;22.60;46.90;21.30;100883.00;;;;5095887;27;19915;-70
2022/09/24 12:42:01;;;;;;;;;;;22.60;46.90;21.30;100883.00;;;;5088968;28;20074;-70
2022/09/24 12:44:53;;;;;;;;;;;22.60;46.90;21.30;100884.00;;;;5090574;28;19954;-70
2022/09/24 12:47:45;;;;;;;;;;;22.60;46.90;21.30;100888.00;;;;5074215;28;19939;-70
2022/09/24 12:50:32;;;;;;;;;;;22.60;46.90;21.30;100888.00;;;;5092005;28;19967;-70
2022/09/24 12:53:23;;;;;;;;;;;22.60;46.90;21.30;100887.00;;;;5079389;28;20357;-70
2022/09/24 12:56:09;;;;;;;;;;;22.60;46.90;21.30;100882.00;;;;5091846;28;19921;-70
2022/09/24 12:58:55;;;;;;;;;;;22.60;46.90;21.30;100886.00;;;;5092462;28;19915;-70
2022/09/24 13:01:42;;;;;;;;;;;22.60;47.00;21.20;100890.00;;;;5093746;28;19912;-70
2022/09/24 13:04:28;;;;;;;;;;;22.60;47.00;21.20;100874.00;;;;5083663;28;19918;-70
2022/09/24 13:07:30;;;;;;;;;;;22.50;46.90;21.20;100882.00;;;;5093892;28;19922;-70
2022/09/24 13:10:15;;;;;;;;;;;22.50;47.60;21.20;100876.00;;;;5092654;28;19945;-70
2022/09/24 13:13:03;;;;;;;;;;;22.50;46.90;21.20;100865.00;;;;5095803;27;19919;-70
2022/09/24 13:16:00;;;;;;;;;;;22.50;47.00;21.20;100872.00;;;;5098832;27;20400;-70
2022/09/24 13:18:53;;;;;;;;;;;22.50;47.00;21.20;100866.00;;;;5091240;28;20281;-70
2022/09/24 13:21:39;;;;;;;;;;;22.50;47.00;21.20;100865.00;;;;5097323;27;19963;-70
2022/09/24 13:24:30;;;;;;;;;;;22.50;47.00;21.20;100866.00;;;;5090876;27;19991;-70
2022/09/24 13:27:21;;;;;;;;;;;22.50;47.00;21.20;100860.00;;;;5095932;28;20280;-70
2022/09/24 13:30:21;;;;;;;;;;;22.50;47.00;21.20;100868.00;;;;5096052;27;19912;-70
2022/09/24 13:33:08;;;;;;;;;;;22.50;47.00;21.20;100863.00;;;;5093749;27;19955;-70
2022/09/24 13:36:05;;;;;;;;;;;22.50;47.00;21.30;100862.00;;;;5096953;27;19915;-70
2022/09/24 13:39:16;;;;;;;;;;;22.50;47.10;21.30;100867.00;;;;5075437;28;19998;-70
2022/09/24 13:42:27;;;;;;;;;;;22.50;47.00;21.30;100871.00;;;;5079111;27;19922;-71
2022/09/24 13:45:15;;;;;;;;;;;22.50;47.10;21.30;100870.00;;;;5098152;27;20337;-70
2022/09/24 13:48:03;;;;;;;;;;;22.50;47.10;21.30;100861.00;;;;5095165;28;19911;-71
2022/09/24 13:50:49;;;;;;;;;;;22.50;47.00;21.30;100865.00;;;;5105790;27;20330;-71
2022/09/24 13:53:38;;;;;;;;;;;22.50;47.00;21.30;100870.00;;;;5094395;27;20436;-70
2022/09/24 13:56:25;;;;;;;;;;;22.50;47.00;21.30;100864.00;;;;5081349;28;20028;-70
2022/09/24 13:59:11;;;;;;;;;;;22.50;47.10;21.30;100867.00;;;;5101326;27;19919;-70